createdAt,value
2022-12-24T00:01:54.654Z,3.70
2022-12-24T00:05:01.403Z,3.69
2022-12-24T00:08:06.164Z,3.72
2022-12-24T00:11:10.784Z,3.68
2022-12-24T00:14:15.298Z,3.67
2022-12-24T00:17:19.713Z,3.69
2022-12-24T00:20:25.119Z,3.76
2022-12-24T00:23:30.246Z,3.68
2022-12-24T00:26:35.260Z,3.71
2022-12-24T00:29:39.911Z,3.69
2022-12-24T00:32:44.048Z,3.63
2022-12-24T00:35:52.366Z,3.68
2022-12-24T00:38:56.635Z,3.64
2022-12-24T00:42:01.023Z,3.64
2022-12-24T00:45:06.211Z,3.60
2022-12-24T00:48:10.835Z,3.51
2022-12-24T00:51:15.842Z,3.51
2022-12-24T00:54:20.671Z,3.54
2022-12-24T00:57:24.846Z,3.51
2022-12-24T01:00:29.209Z,3.53
2022-12-24T01:03:35.412Z,3.51
2022-12-24T01:06:39.999Z,3.55
2022-12-24T01:09:44.001Z,3.46
2022-12-24T01:12:48.308Z,3.50
2022-12-24T01:15:53.002Z,3.51
2022-12-24T01:18:57.451Z,3.51
2022-12-24T01:22:01.984Z,3.50
2022-12-24T01:25:06.785Z,3.51
2022-12-24T01:28:10.888Z,3.51
2022-12-24T01:31:18.882Z,3.53
2022-12-24T01:34:23.076Z,3.57
2022-12-24T01:37:27.547Z,3.52
2022-12-24T01:40:50.718Z,3.54
2022-12-24T01:43:55.466Z,3.59
2022-12-24T01:47:17.835Z,3.61
2022-12-24T01:50:22.099Z,3.64
2022-12-24T01:53:26.514Z,3.63
2022-12-24T01:56:32.439Z,3.58
2022-12-24T01:59:38.901Z,3.55
2022-12-24T02:02:47.938Z,3.56
2022-12-24T02:05:57.280Z,3.54
2022-12-24T02:09:02.013Z,3.55
2022-12-24T02:12:07.611Z,3.57
2022-12-24T02:15:15.675Z,3.61
2022-12-24T02:18:34.697Z,3.63
2022-12-24T02:22:11.474Z,3.60
2022-12-24T02:25:30.418Z,3.60
2022-12-24T02:29:19.658Z,3.61
2022-12-24T02:33:14.760Z,3.58
2022-12-24T02:37:07.015Z,3.58
2022-12-24T02:40:22.011Z,3.61
2022-12-24T02:43:35.856Z,3.59
2022-12-24T02:46:40.210Z,3.60
2022-12-24T02:49:47.652Z,3.60
2022-12-24T02:52:52.334Z,3.65
2022-12-24T02:56:13.336Z,3.61
2022-12-24T02:59:40.415Z,3.60
2022-12-24T03:03:12.632Z,3.65
2022-12-24T03:06:33.824Z,3.62
2022-12-24T03:10:06.646Z,3.60
2022-12-24T03:13:18.987Z,3.65
2022-12-24T03:16:26.980Z,3.64
2022-12-24T03:19:32.995Z,3.59
2022-12-24T03:22:38.113Z,3.63
2022-12-24T03:25:44.991Z,3.69
2022-12-24T03:28:50.177Z,3.66
2022-12-24T03:32:02.263Z,3.61
2022-12-24T03:35:08.711Z,3.60
2022-12-24T03:38:13.248Z,3.58
2022-12-24T03:41:17.506Z,3.60
2022-12-24T03:44:21.689Z,3.61
2022-12-24T03:47:26.195Z,3.59
2022-12-24T03:50:30.528Z,3.55
2022-12-24T03:53:34.759Z,3.61
2022-12-24T03:56:38.740Z,3.62
2022-12-24T03:59:43.192Z,3.54
2022-12-24T04:02:47.899Z,3.59
2022-12-24T04:06:11.275Z,3.60
2022-12-24T04:09:15.928Z,3.58
2022-12-24T04:12:20.313Z,3.61
2022-12-24T04:15:25.115Z,3.65
2022-12-24T04:18:29.929Z,3.64
2022-12-24T04:21:34.184Z,3.64
2022-12-24T04:24:38.476Z,3.59
2022-12-24T04:27:42.926Z,3.56
2022-12-24T04:30:47.289Z,3.54
2022-12-24T04:33:53.355Z,3.56
2022-12-24T04:36:58.429Z,3.54
2022-12-24T04:40:03.213Z,3.55
2022-12-24T04:43:07.707Z,3.52
2022-12-24T04:46:18.042Z,3.57
2022-12-24T04:49:22.774Z,3.53
2022-12-24T04:52:28.025Z,3.61
2022-12-24T04:55:32.368Z,3.56
2022-12-24T04:58:36.819Z,3.56
2022-12-24T05:01:41.419Z,3.59
2022-12-24T05:04:46.082Z,3.61
2022-12-24T05:07:50.534Z,3.59
2022-12-24T05:10:59.328Z,3.61
2022-12-24T05:14:04.006Z,3.67
2022-12-24T05:17:08.969Z,3.61
2022-12-24T05:20:13.266Z,3.60
2022-12-24T05:23:43.684Z,3.62
2022-12-24T05:26:57.170Z,3.67
2022-12-24T05:30:01.460Z,3.60
2022-12-24T05:33:06.136Z,3.60
2022-12-24T05:36:10.761Z,3.59
2022-12-24T05:39:17.477Z,3.62
2022-12-24T05:42:22.130Z,3.67
2022-12-24T05:45:26.664Z,3.63
2022-12-24T05:48:31.122Z,3.60
2022-12-24T05:51:35.771Z,3.61
2022-12-24T05:54:40.709Z,3.69
2022-12-24T05:57:45.733Z,3.66
2022-12-24T06:00:54.457Z,3.60
2022-12-24T06:03:58.929Z,3.62
2022-12-24T06:07:03.106Z,3.62
2022-12-24T06:10:08.913Z,3.61
2022-12-24T06:13:13.647Z,3.67
2022-12-24T06:16:20.461Z,3.67
2022-12-24T06:19:26.105Z,3.71
2022-12-24T06:22:30.888Z,3.67
2022-12-24T06:25:35.287Z,3.67
2022-12-24T06:28:40.124Z,3.67
2022-12-24T06:31:44.694Z,3.68
2022-12-24T06:34:49.329Z,3.62
2022-12-24T06:37:53.570Z,3.70
2022-12-24T06:40:57.825Z,3.69
2022-12-24T06:44:02.106Z,3.63
2022-12-24T06:47:06.961Z,3.66
2022-12-24T06:50:11.927Z,3.67
2022-12-24T06:53:16.318Z,3.69
2022-12-24T06:56:22.022Z,3.68
2022-12-24T06:59:26.570Z,3.68
2022-12-24T07:02:30.912Z,3.64
2022-12-24T07:05:35.274Z,3.70
2022-12-24T07:08:39.484Z,3.76
2022-12-24T07:11:43.701Z,3.68
2022-12-24T07:14:47.936Z,3.69
2022-12-24T07:17:52.842Z,3.74
2022-12-24T07:20:58.258Z,3.76
2022-12-24T07:24:02.778Z,3.75
2022-12-24T07:27:07.161Z,3.74
2022-12-24T07:30:12.148Z,3.76
2022-12-24T07:33:16.688Z,3.80
2022-12-24T07:36:22.135Z,3.83
2022-12-24T07:39:26.927Z,3.87
2022-12-24T07:42:31.283Z,3.83
2022-12-24T07:45:35.907Z,3.87
2022-12-24T07:48:40.642Z,3.83
2022-12-24T07:51:45.561Z,3.84
2022-12-24T07:54:49.734Z,3.82
2022-12-24T07:57:54.033Z,3.80
2022-12-24T08:01:00.095Z,3.82
2022-12-24T08:04:05.777Z,3.83
2022-12-24T08:07:10.817Z,3.83
2022-12-24T08:10:15.307Z,3.83
2022-12-24T08:13:20.234Z,3.90
2022-12-24T08:16:24.916Z,3.89
2022-12-24T08:19:29.611Z,3.88
2022-12-24T08:22:34.059Z,3.87
2022-12-24T08:25:42.288Z,3.88
2022-12-24T08:28:46.738Z,3.87
2022-12-24T08:31:51.172Z,3.89
2022-12-24T08:34:55.972Z,3.87
2022-12-24T08:38:00.356Z,3.94
2022-12-24T08:41:05.658Z,3.97
2022-12-24T08:44:10.434Z,3.90
2022-12-24T08:47:14.806Z,3.91
2022-12-24T08:50:19.051Z,3.93
2022-12-24T08:53:23.449Z,3.97
2022-12-24T08:56:27.976Z,3.90
2022-12-24T08:59:32.348Z,3.93
2022-12-24T09:02:37.051Z,3.92
2022-12-24T09:05:41.641Z,3.94
2022-12-24T09:08:50.624Z,4.03
2022-12-24T09:11:55.155Z,4.04
2022-12-24T09:15:03.399Z,4.01
2022-12-24T09:18:08.495Z,4.05
2022-12-24T09:21:15.605Z,4.07
2022-12-24T09:24:20.104Z,4.08
2022-12-24T09:27:24.459Z,4.08
2022-12-24T09:30:28.739Z,4.14
2022-12-24T09:33:36.931Z,4.16
2022-12-24T09:36:41.252Z,4.18
2022-12-24T09:39:45.628Z,4.11
2022-12-24T09:42:54.338Z,4.11
2022-12-24T09:46:22.827Z,4.14
2022-12-24T09:49:40.575Z,4.20
2022-12-24T09:52:47.517Z,4.21
2022-12-24T09:56:00.558Z,4.19
2022-12-24T09:59:13.486Z,4.21
2022-12-24T10:02:20.376Z,4.30
2022-12-24T10:05:44.012Z,4.35
2022-12-24T10:09:24.057Z,4.32
2022-12-24T10:12:47.588Z,4.25
2022-12-24T10:16:33.001Z,4.28
2022-12-24T10:19:56.673Z,4.27
2022-12-24T10:23:31.993Z,4.33
2022-12-24T10:26:55.364Z,4.38
2022-12-24T10:30:16.916Z,4.39
2022-12-24T10:33:49.926Z,4.47
2022-12-24T10:36:54.589Z,4.46
2022-12-24T10:40:00.873Z,4.50
2022-12-24T10:43:16.601Z,4.52
2022-12-24T10:46:38.941Z,4.53
2022-12-24T10:50:02.400Z,4.46
2022-12-24T10:53:48.756Z,4.47
2022-12-24T10:57:02.090Z,4.53
2022-12-24T11:00:19.046Z,4.49
2022-12-24T11:03:42.609Z,4.45
2022-12-24T11:06:57.547Z,4.45
2022-12-24T11:10:08.053Z,4.52
2022-12-24T11:13:39.724Z,4.57
2022-12-24T11:16:57.117Z,4.49
2022-12-24T11:20:04.084Z,4.50
2022-12-24T11:23:17.230Z,4.63
2022-12-24T11:26:31.709Z,4.68
2022-12-24T11:29:36.097Z,4.76
2022-12-24T11:32:48.499Z,4.79
2022-12-24T11:36:00.598Z,4.71
2022-12-24T11:39:05.499Z,4.76
2022-12-24T11:42:39.355Z,4.71
2022-12-24T11:45:58.028Z,4.76
2022-12-24T11:49:31.730Z,4.68
2022-12-24T11:52:36.323Z,4.69
2022-12-24T11:55:45.607Z,4.80
2022-12-24T11:58:57.436Z,4.75
2022-12-24T12:02:30.078Z,4.84
2022-12-24T12:05:37.928Z,4.85
2022-12-24T12:08:43.656Z,4.95
2022-12-24T12:11:57.694Z,4.97
2022-12-24T12:15:24.846Z,4.97
2022-12-24T12:18:40.589Z,5.06
2022-12-24T12:21:49.347Z,5.05
2022-12-24T12:24:56.222Z,5.08
2022-12-24T12:28:07.548Z,5.10
2022-12-24T12:31:26.613Z,5.13
2022-12-24T12:34:46.240Z,5.14
2022-12-24T12:38:23.128Z,5.12
2022-12-24T12:42:03.762Z,5.19
2022-12-24T12:45:34.195Z,5.23
2022-12-24T12:49:03.246Z,5.27
2022-12-24T12:52:42.158Z,5.32
2022-12-24T12:56:11.163Z,5.31
2022-12-24T12:59:33.677Z,5.38
2022-12-24T13:03:13.119Z,5.42
2022-12-24T13:06:59.871Z,5.36
2022-12-24T13:10:24.267Z,5.38
2022-12-24T13:13:51.588Z,5.45
2022-12-24T13:17:01.864Z,5.48
2022-12-24T13:20:36.869Z,5.38
2022-12-24T13:23:41.194Z,5.42
2022-12-24T13:27:32.919Z,5.48
2022-12-24T13:30:43.499Z,5.64
2022-12-24T13:33:51.524Z,5.66
2022-12-24T13:37:20.856Z,5.74
2022-12-24T13:40:27.335Z,5.76
2022-12-24T13:44:11.202Z,5.81
2022-12-24T13:47:25.424Z,5.84
2022-12-24T13:50:50.716Z,5.85
2022-12-24T13:54:00.301Z,5.91
2022-12-24T13:57:27.506Z,5.92
2022-12-24T14:01:00.660Z,5.87
2022-12-24T14:04:09.623Z,5.90
2022-12-24T14:07:20.506Z,5.96
2022-12-24T14:10:31.874Z,5.94
2022-12-24T14:13:39.518Z,5.89
2022-12-24T14:16:50.322Z,5.93
2022-12-24T14:20:02.606Z,5.93
2022-12-24T14:23:23.206Z,5.98
2022-12-24T14:26:35.702Z,5.98
2022-12-24T14:30:21.071Z,5.94
2022-12-24T14:33:31.949Z,6.02
2022-12-24T14:36:37.729Z,6.03
2022-12-24T14:39:48.742Z,6.04
2022-12-24T14:43:26.232Z,6.08
2022-12-24T14:47:01.871Z,6.14
2022-12-24T14:50:39.391Z,6.20
2022-12-24T14:54:31.592Z,6.17
2022-12-24T14:57:38.535Z,6.17
2022-12-24T15:00:44.286Z,6.20
2022-12-24T15:04:14.920Z,6.18
2022-12-24T15:07:20.399Z,6.18
2022-12-24T15:10:33.790Z,6.20
2022-12-24T15:13:46.541Z,6.20
2022-12-24T15:16:58.256Z,6.21
2022-12-24T15:20:07.737Z,6.24
2022-12-24T15:23:37.529Z,6.31
2022-12-24T15:26:45.545Z,6.33
2022-12-24T15:29:58.397Z,6.31
2022-12-24T15:33:05.356Z,6.36
2022-12-24T15:36:10.341Z,6.44
2022-12-24T15:39:18.599Z,6.46
2022-12-24T15:42:27.621Z,6.47
2022-12-24T15:45:44.008Z,6.55
2022-12-24T15:48:50.323Z,6.58
2022-12-24T15:52:02.937Z,6.60
2022-12-24T15:55:38.354Z,6.65
2022-12-24T15:58:45.712Z,6.68
2022-12-24T16:01:52.093Z,6.74
2022-12-24T16:05:29.700Z,6.83
2022-12-24T16:08:40.320Z,6.91
2022-12-24T16:11:45.274Z,6.90
2022-12-24T16:15:00.855Z,6.93
2022-12-24T16:18:06.209Z,6.89
2022-12-24T16:21:19.015Z,6.87
2022-12-24T16:24:28.456Z,6.87
2022-12-24T16:27:33.023Z,6.79
2022-12-24T16:30:37.245Z,6.84
2022-12-24T16:33:41.828Z,6.80
2022-12-24T16:36:46.863Z,6.90
2022-12-24T16:39:51.312Z,6.88
2022-12-24T16:43:17.609Z,6.87
2022-12-24T16:46:22.447Z,6.96
2022-12-24T16:49:27.871Z,6.93
2022-12-24T16:52:36.145Z,6.91
2022-12-24T16:55:40.262Z,6.89
2022-12-24T16:58:45.276Z,6.89
2022-12-24T17:01:51.208Z,6.95
2022-12-24T17:04:56.070Z,6.95
2022-12-24T17:08:01.919Z,6.99
2022-12-24T17:11:06.258Z,6.94
2022-12-24T17:14:19.656Z,6.90
2022-12-24T17:17:28.979Z,6.90
2022-12-24T17:20:33.812Z,6.94
2022-12-24T17:23:41.779Z,6.92
2022-12-24T17:26:46.348Z,6.90
2022-12-24T17:29:50.910Z,6.87
2022-12-24T17:32:55.151Z,6.89
2022-12-24T17:35:59.352Z,6.90
2022-12-24T17:39:03.910Z,6.88
2022-12-24T17:42:08.271Z,6.87
2022-12-24T17:45:12.581Z,6.93
2022-12-24T17:48:16.855Z,6.96
2022-12-24T17:51:23.432Z,6.88
2022-12-24T17:54:27.791Z,6.92
2022-12-24T17:57:32.135Z,6.90
2022-12-24T18:00:36.842Z,6.89
2022-12-24T18:03:41.991Z,6.91
2022-12-24T18:06:49.528Z,6.85
2022-12-24T18:09:54.303Z,6.90
2022-12-24T18:12:58.584Z,6.88
2022-12-24T18:16:02.821Z,6.92
2022-12-24T18:19:11.648Z,6.87
2022-12-24T18:22:16.174Z,6.88
2022-12-24T18:25:20.672Z,6.90
2022-12-24T18:28:25.052Z,6.82
2022-12-24T18:31:30.639Z,6.85
2022-12-24T18:34:35.509Z,6.73
2022-12-24T18:37:39.964Z,6.64
2022-12-24T18:40:44.023Z,6.72
2022-12-24T18:43:48.663Z,6.63
2022-12-24T18:46:53.746Z,6.70
2022-12-24T18:49:58.391Z,6.66
2022-12-24T18:53:04.183Z,6.60
2022-12-24T18:56:16.137Z,6.65
2022-12-24T18:59:20.479Z,6.69
2022-12-24T19:02:25.219Z,6.59
2022-12-24T19:05:31.039Z,6.64
2022-12-24T19:12:00.504Z,6.63
2022-12-24T19:15:06.613Z,6.58
2022-12-24T19:18:10.955Z,6.50
2022-12-24T19:21:17.726Z,6.25
2022-12-24T19:24:22.731Z,6.33
2022-12-24T19:27:27.409Z,6.22
2022-12-24T19:30:31.990Z,6.16
2022-12-24T19:33:43.257Z,6.24
2022-12-24T19:36:48.231Z,6.26
2022-12-24T19:39:53.276Z,6.25
2022-12-24T19:42:58.076Z,6.21
2022-12-24T19:46:06.439Z,6.17
2022-12-24T19:49:12.438Z,6.16
2022-12-24T19:52:16.894Z,6.13
2022-12-24T19:55:21.340Z,6.10
2022-12-24T19:58:27.377Z,6.07
2022-12-24T20:01:35.251Z,6.02
2022-12-24T20:04:40.394Z,5.95
2022-12-24T20:07:45.045Z,5.89
2022-12-24T20:10:49.462Z,5.83
2022-12-24T20:13:58.550Z,5.82
2022-12-24T20:17:02.900Z,5.83
2022-12-24T20:20:08.463Z,5.81
2022-12-24T20:23:13.117Z,5.80
2022-12-24T20:26:20.404Z,5.79
2022-12-24T20:29:25.102Z,5.78
2022-12-24T20:32:29.723Z,5.79
2022-12-24T20:35:35.880Z,5.77
2022-12-24T20:38:40.406Z,5.77
2022-12-24T20:41:45.069Z,5.73
2022-12-24T20:44:49.602Z,5.73
2022-12-24T20:47:54.156Z,5.69
2022-12-24T20:50:59.201Z,5.69
2022-12-24T20:54:04.444Z,5.66
2022-12-24T20:57:08.615Z,5.63
2022-12-24T21:00:13.763Z,5.61
2022-12-24T21:03:18.773Z,5.58
2022-12-24T21:06:24.532Z,5.56
2022-12-24T21:09:30.443Z,5.58
2022-12-24T21:12:50.249Z,5.60
2022-12-24T21:15:54.900Z,5.63
2022-12-24T21:18:59.593Z,5.65
2022-12-24T21:22:04.026Z,5.62
2022-12-24T21:25:10.038Z,5.59
2022-12-24T21:28:17.578Z,5.55
2022-12-24T21:31:22.269Z,5.55
2022-12-24T21:34:27.057Z,5.51
2022-12-24T21:37:31.476Z,5.49
2022-12-24T21:40:38.897Z,5.48
2022-12-24T21:43:44.596Z,5.46
2022-12-24T21:46:49.571Z,5.43
2022-12-24T21:50:12.451Z,5.43
2022-12-24T21:53:36.150Z,5.51
2022-12-24T21:56:59.665Z,5.55
2022-12-24T22:00:26.676Z,5.62
2022-12-24T22:03:31.348Z,5.64
2022-12-24T22:06:54.681Z,5.69
2022-12-24T22:10:17.622Z,5.75
2022-12-24T22:13:23.119Z,5.79
2022-12-24T22:16:28.288Z,5.84
2022-12-24T22:19:32.996Z,5.86
2022-12-24T22:22:37.741Z,5.90
2022-12-24T22:25:43.901Z,5.94
2022-12-24T22:28:48.140Z,5.97
2022-12-24T22:31:52.762Z,6.02
2022-12-24T22:34:57.235Z,6.05
2022-12-24T22:38:01.753Z,6.09
2022-12-24T22:41:08.693Z,6.11
2022-12-24T22:44:13.180Z,6.13
2022-12-24T22:47:17.550Z,6.17
2022-12-24T22:50:22.388Z,6.20
2022-12-24T22:53:26.949Z,6.21
2022-12-24T22:56:35.518Z,6.22
2022-12-24T22:59:43.470Z,6.26
2022-12-24T23:02:48.122Z,6.27
2022-12-24T23:06:10.925Z,6.15
2022-12-24T23:09:16.019Z,6.25
2022-12-24T23:12:40.586Z,6.29
2022-12-24T23:15:44.964Z,6.35
2022-12-24T23:18:49.008Z,6.25
2022-12-24T23:21:53.356Z,6.16
2022-12-24T23:24:57.672Z,6.17
2022-12-24T23:28:02.142Z,6.16
2022-12-24T23:31:07.203Z,6.20
2022-12-24T23:34:11.890Z,6.25
2022-12-24T23:37:16.009Z,6.26
2022-12-24T23:40:20.080Z,6.23
2022-12-24T23:43:24.752Z,6.22
2022-12-24T23:46:30.230Z,6.32
2022-12-24T23:49:34.848Z,6.31
2022-12-24T23:52:38.908Z,6.29
2022-12-24T23:55:43.344Z,6.27
2022-12-24T23:58:48.373Z,6.21
